createdAt,value
2023-02-22T00:02:27.146Z,4.10
2023-02-22T00:14:52.804Z,4.00
2023-02-22T00:29:51.610Z,4.00
2023-02-22T00:39:48.337Z,4.00
2023-02-22T00:44:46.782Z,4.10
2023-02-22T00:47:17.510Z,3.90
2023-02-22T01:04:47.068Z,3.90
2023-02-22T01:22:19.691Z,4.00
2023-02-22T01:39:43.947Z,4.00
2023-02-22T01:49:46.078Z,4.00
2023-02-22T01:52:17.940Z,3.90
2023-02-22T01:54:50.771Z,3.90
2023-02-22T01:57:24.927Z,3.80
2023-02-22T01:59:57.708Z,3.70
2023-02-22T02:02:27.541Z,3.70
2023-02-22T02:04:57.640Z,3.60
2023-02-22T02:07:29.584Z,3.70
2023-02-22T02:10:01.427Z,3.70
2023-02-22T02:12:32.706Z,3.70
2023-02-22T02:15:22.040Z,3.70
2023-02-22T02:17:52.149Z,3.70
2023-02-22T02:20:31.977Z,3.50
2023-02-22T02:23:11.957Z,3.60
2023-02-22T02:26:06.915Z,3.60
2023-02-22T02:29:13.430Z,3.60
2023-02-22T02:32:29.467Z,3.50
2023-02-22T02:35:05.382Z,3.50
2023-02-22T02:37:39.410Z,3.50
2023-02-22T02:40:19.292Z,3.40
2023-02-22T02:42:55.720Z,3.50
2023-02-22T02:45:30.497Z,3.50
2023-02-22T02:48:09.930Z,3.50
2023-02-22T02:50:44.818Z,3.50
2023-02-22T03:00:43.234Z,3.40
2023-02-22T03:03:53.444Z,3.50
2023-02-22T03:06:53.726Z,3.50
2023-02-22T03:09:30.560Z,3.50
2023-02-22T03:12:09.132Z,3.50
2023-02-22T03:14:44.024Z,3.30
2023-02-22T03:17:19.326Z,3.50
2023-02-22T03:19:53.407Z,3.50
2023-02-22T03:22:27.732Z,3.50
2023-02-22T03:25:07.175Z,3.50
2023-02-22T03:27:43.805Z,3.50
2023-02-22T03:30:17.215Z,3.50
2023-02-22T03:32:52.123Z,3.30
2023-02-22T03:35:24.385Z,3.30
2023-02-22T03:37:59.745Z,3.30
2023-02-22T03:40:33.704Z,3.30
2023-02-22T03:43:07.889Z,3.30
2023-02-22T03:45:38.844Z,3.20
2023-02-22T03:48:13.798Z,3.10
2023-02-22T03:50:43.556Z,3.10
2023-02-22T03:55:40.363Z,3.00
2023-02-22T03:58:14.859Z,3.00
2023-02-22T04:08:12.489Z,3.00
2023-02-22T04:25:36.978Z,2.80
2023-02-22T04:40:35.038Z,2.90
2023-02-22T04:45:32.405Z,2.90
2023-02-22T04:57:59.265Z,2.80
2023-02-22T05:00:27.752Z,2.80
2023-02-22T05:15:25.414Z,2.90
2023-02-22T05:17:55.572Z,2.90
2023-02-22T05:20:28.165Z,3.60
2023-02-22T05:22:58.198Z,2.80
2023-02-22T05:27:57.316Z,2.60
2023-02-22T05:30:34.391Z,2.60
2023-02-22T05:35:31.988Z,4.80
2023-02-22T05:40:33.011Z,2.40
2023-02-22T05:45:34.142Z,2.50
2023-02-22T05:48:05.036Z,2.50
2023-02-22T05:58:06.132Z,2.50
2023-02-22T06:00:38.379Z,2.50
2023-02-22T06:03:09.132Z,2.50
2023-02-22T06:08:08.630Z,2.50
2023-02-22T06:13:08.641Z,2.50
2023-02-22T06:15:40.740Z,2.50
2023-02-22T06:30:38.387Z,2.50
2023-02-22T06:48:05.322Z,2.70
2023-02-22T06:55:38.018Z,2.80
2023-02-22T07:03:08.170Z,3.00
2023-02-22T07:08:09.876Z,3.10
2023-02-22T07:10:41.705Z,3.20
2023-02-22T07:18:12.096Z,3.40
2023-02-22T07:30:35.870Z,3.60
2023-02-22T07:33:05.409Z,3.60
2023-02-22T07:35:39.056Z,3.70
2023-02-22T07:38:10.125Z,3.70
2023-02-22T07:40:41.289Z,3.70
2023-02-22T07:43:17.608Z,3.70
2023-02-22T07:48:17.566Z,4.00
2023-02-22T07:50:47.736Z,4.10
2023-02-22T07:53:20.138Z,4.30
2023-02-22T07:58:21.418Z,4.60
2023-02-22T08:03:25.428Z,4.90
2023-02-22T08:05:56.830Z,4.90
2023-02-22T08:15:56.359Z,5.20
2023-02-22T08:18:25.753Z,5.50
2023-02-22T08:20:56.445Z,5.40
2023-02-22T08:23:26.983Z,5.70
2023-02-22T08:28:26.275Z,5.80
2023-02-22T08:33:25.020Z,6.20
2023-02-22T08:35:55.191Z,6.30
2023-02-22T08:38:27.745Z,6.30
2023-02-22T08:48:28.486Z,6.30
2023-02-22T08:50:58.304Z,6.30
2023-02-22T09:05:55.136Z,7.50
2023-02-22T09:08:25.045Z,7.60
2023-02-22T09:25:53.965Z,8.60
2023-02-22T09:33:21.767Z,8.80
2023-02-22T09:35:51.182Z,8.90
2023-02-22T09:38:23.002Z,8.90
2023-02-22T09:40:55.173Z,8.90
2023-02-22T09:43:36.036Z,9.10
2023-02-22T09:46:19.127Z,9.00
2023-02-22T09:48:59.357Z,9.30
2023-02-22T09:51:36.759Z,9.50
2023-02-22T09:54:14.808Z,9.50
2023-02-22T09:56:48.990Z,9.50
2023-02-22T09:59:22.942Z,9.60
2023-02-22T10:01:58.934Z,9.00
2023-02-22T10:04:42.085Z,9.90
2023-02-22T10:07:19.819Z,10.10
2023-02-22T10:09:51.514Z,10.40
2023-02-22T10:12:30.779Z,10.40
2023-02-22T10:15:34.602Z,10.60
2023-02-22T10:18:07.713Z,10.80
2023-02-22T10:20:49.316Z,10.80
2023-02-22T10:23:28.619Z,11.10
2023-02-22T10:26:10.088Z,11.00
2023-02-22T10:28:58.205Z,11.10
2023-02-22T10:31:33.485Z,11.40
2023-02-22T10:34:10.778Z,11.40
2023-02-22T10:39:21.918Z,11.70
2023-02-22T10:41:56.072Z,11.90
2023-02-22T10:46:54.981Z,12.00
2023-02-22T10:49:26.739Z,12.20
2023-02-22T10:52:03.175Z,12.30
2023-02-22T10:54:38.305Z,12.00
2023-02-22T10:57:13.591Z,12.10
2023-02-22T10:59:43.870Z,12.40
2023-02-22T11:02:22.105Z,12.50
2023-02-22T11:04:52.869Z,12.60
2023-02-22T11:07:24.775Z,12.80
2023-02-22T11:12:34.800Z,13.00
2023-02-22T11:20:25.611Z,13.30
2023-02-22T11:22:56.452Z,13.30
2023-02-22T11:25:29.135Z,13.10
2023-02-22T11:30:33.872Z,13.30
2023-02-22T11:33:25.655Z,13.40
2023-02-22T11:35:55.927Z,13.40
2023-02-22T11:41:12.294Z,13.70
2023-02-22T11:46:15.151Z,14.00
2023-02-22T11:48:59.580Z,13.90
2023-02-22T11:51:45.035Z,13.60
2023-02-22T11:54:29.664Z,13.70
2023-02-22T11:57:16.628Z,13.50
2023-02-22T11:59:55.975Z,13.90
2023-02-22T12:02:51.827Z,14.00
2023-02-22T12:05:48.955Z,14.30
2023-02-22T12:08:26.850Z,14.20
2023-02-22T12:11:10.668Z,14.20
2023-02-22T12:13:55.030Z,14.40
2023-02-22T12:16:38.046Z,14.40
2023-02-22T12:19:22.352Z,14.60
2023-02-22T12:22:02.677Z,14.80
2023-02-22T12:24:38.329Z,14.70
2023-02-22T12:27:12.708Z,14.70
2023-02-22T12:29:44.988Z,14.90
2023-02-22T12:32:19.601Z,15.00
2023-02-22T12:34:54.457Z,14.90
2023-02-22T12:37:28.947Z,14.70
2023-02-22T12:40:08.555Z,15.00
2023-02-22T12:42:54.063Z,14.90
2023-02-22T12:45:30.039Z,15.10
2023-02-22T12:48:15.583Z,15.30
2023-02-22T12:50:46.519Z,15.40
2023-02-22T12:53:26.323Z,15.60
2023-02-22T12:56:00.636Z,15.80
2023-02-22T12:58:34.324Z,15.80
2023-02-22T13:01:07.046Z,15.70
2023-02-22T13:03:38.791Z,15.90
2023-02-22T13:06:22.770Z,15.80
2023-02-22T13:09:03.729Z,15.60
2023-02-22T13:11:37.681Z,15.80
2023-02-22T13:14:18.394Z,15.80
2023-02-22T13:16:53.523Z,15.70
2023-02-22T13:19:43.215Z,16.10
2023-02-22T13:22:19.665Z,15.80
2023-02-22T13:25:02.425Z,15.90
2023-02-22T13:27:38.849Z,15.80
2023-02-22T13:30:16.256Z,15.70
2023-02-22T13:33:07.278Z,16.00
2023-02-22T13:35:52.326Z,16.00
2023-02-22T13:38:52.089Z,16.10
2023-02-22T13:41:57.600Z,16.30
2023-02-22T13:45:00.041Z,16.30
2023-02-22T13:48:02.207Z,16.40
2023-02-22T13:51:04.716Z,16.70
2023-02-22T13:53:45.179Z,16.40
2023-02-22T13:56:17.059Z,16.00
2023-02-22T14:01:38.989Z,16.20
2023-02-22T14:04:39.892Z,16.00
2023-02-22T14:07:59.612Z,15.70
2023-02-22T14:10:51.893Z,15.60
2023-02-22T14:13:22.583Z,15.80
2023-02-22T14:16:21.057Z,15.90
2023-02-22T14:18:54.521Z,15.80
2023-02-22T14:21:24.863Z,16.00
2023-02-22T14:23:58.484Z,16.00
2023-02-22T14:26:29.836Z,16.00
2023-02-22T14:29:03.036Z,15.70
2023-02-22T14:31:55.807Z,15.70
2023-02-22T14:34:48.723Z,15.70
2023-02-22T14:37:19.786Z,15.60
2023-02-22T14:39:51.481Z,15.50
2023-02-22T14:42:24.422Z,15.70
2023-02-22T14:44:55.361Z,15.60
2023-02-22T14:47:29.659Z,15.50
2023-02-22T14:50:07.419Z,15.60
2023-02-22T14:52:39.736Z,15.70
2023-02-22T14:55:19.314Z,15.50
2023-02-22T14:58:00.301Z,15.60
2023-02-22T15:00:37.802Z,15.50
2023-02-22T15:05:39.833Z,15.60
2023-02-22T15:08:11.330Z,15.70
2023-02-22T15:10:46.304Z,15.00
2023-02-22T15:13:23.915Z,16.00
2023-02-22T15:16:01.564Z,15.70
2023-02-22T15:18:35.254Z,15.50
2023-02-22T15:21:13.200Z,15.60
2023-02-22T15:26:24.325Z,15.60
2023-02-22T15:28:56.877Z,15.50
2023-02-22T15:31:31.698Z,15.60
2023-02-22T15:34:11.952Z,15.50
2023-02-22T15:39:25.572Z,15.40
2023-02-22T15:42:06.518Z,15.40
2023-02-22T15:44:40.784Z,15.30
2023-02-22T15:47:13.383Z,15.20
2023-02-22T15:49:45.448Z,15.20
2023-02-22T15:52:21.202Z,15.10
2023-02-22T15:55:06.720Z,15.10
2023-02-22T15:57:40.887Z,15.10
2023-02-22T16:00:22.085Z,15.10
2023-02-22T16:02:51.981Z,15.50
2023-02-22T16:05:21.648Z,16.20
2023-02-22T16:07:52.418Z,14.80
2023-02-22T16:10:30.015Z,14.70
2023-02-22T16:13:31.135Z,14.70
2023-02-22T16:16:03.288Z,14.60
2023-02-22T16:18:34.081Z,14.30
2023-02-22T16:21:10.487Z,14.10
2023-02-22T16:23:46.438Z,14.10
2023-02-22T16:26:24.565Z,14.00
2023-02-22T16:28:57.458Z,16.60
2023-02-22T16:31:29.421Z,13.80
2023-02-22T16:36:41.573Z,13.60
2023-02-22T16:51:45.067Z,13.10
2023-02-22T16:54:15.516Z,13.00
2023-02-22T16:59:15.526Z,12.70
2023-02-22T17:01:48.057Z,12.70
2023-02-22T17:04:17.724Z,12.70
2023-02-22T17:06:47.454Z,12.60
2023-02-22T17:11:46.257Z,12.40
2023-02-22T17:14:26.149Z,12.30
2023-02-22T17:19:28.656Z,12.20
2023-02-22T17:22:01.109Z,12.20
2023-02-22T17:36:59.878Z,11.90
2023-02-22T18:44:19.301Z,10.80
2023-02-22T18:51:47.460Z,10.70
2023-02-22T18:59:16.315Z,10.60
2023-02-22T19:01:49.191Z,10.50
2023-02-22T19:04:19.781Z,10.50
2023-02-22T19:14:19.784Z,10.30
2023-02-22T19:16:50.827Z,10.30
2023-02-22T19:19:20.998Z,10.30
2023-02-22T19:32:03.049Z,10.20
2023-02-22T19:49:41.257Z,9.90
2023-02-22T20:02:12.147Z,9.80
2023-02-22T20:17:08.092Z,10.10
2023-02-22T20:32:06.080Z,9.80
2023-02-22T20:37:06.165Z,9.80
2023-02-22T20:54:34.559Z,9.90
2023-02-22T21:09:36.933Z,10.10
2023-02-22T21:12:14.593Z,10.10
2023-02-22T21:14:45.019Z,10.10
2023-02-22T21:24:48.253Z,10.20
2023-02-22T21:34:54.813Z,10.30
2023-02-22T21:39:55.475Z,10.40
2023-02-22T21:54:55.642Z,10.50
2023-02-22T22:09:56.760Z,10.50
2023-02-22T22:12:37.475Z,10.50
2023-02-22T22:15:08.906Z,10.60
2023-02-22T22:20:06.722Z,10.50
2023-02-22T22:27:39.010Z,10.50
2023-02-22T22:30:11.255Z,10.90
2023-02-22T22:35:14.727Z,12.20
2023-02-22T22:37:47.510Z,10.40
2023-02-22T22:42:49.117Z,10.40
2023-02-22T22:52:57.110Z,10.40
2023-02-22T22:57:55.875Z,10.30
2023-02-22T23:13:10.768Z,10.30
2023-02-22T23:15:43.483Z,10.30
2023-02-22T23:18:12.399Z,10.30
2023-02-22T23:23:14.685Z,10.40
2023-02-22T23:28:24.053Z,10.30
2023-02-22T23:33:27.677Z,11.20
2023-02-22T23:38:26.275Z,10.20
2023-02-22T23:43:32.609Z,10.30
2023-02-22T23:46:10.872Z,10.70
2023-02-22T23:48:46.767Z,10.30
2023-02-22T23:51:18.869Z,10.30
2023-02-22T23:53:49.590Z,10.30
2023-02-22T23:56:22.814Z,12.20
2023-02-22T23:58:53.414Z,10.30
